createdAt,value
2019-05-22T00:02:41.147Z,11.60
2019-05-22T00:05:15.430Z,11.60
2019-05-22T00:07:47.030Z,11.60
2019-05-22T00:10:19.366Z,11.60
2019-05-22T00:12:49.886Z,11.60
2019-05-22T00:15:20.961Z,11.60
2019-05-22T00:17:51.481Z,11.60
2019-05-22T00:20:25.107Z,11.60
2019-05-22T00:22:54.957Z,11.60
2019-05-22T00:25:27.058Z,11.60
2019-05-22T00:27:56.539Z,11.60
2019-05-22T00:30:28.831Z,11.70
2019-05-22T00:33:00.303Z,11.70
2019-05-22T00:35:31.505Z,11.70
2019-05-22T00:38:03.308Z,11.70
2019-05-22T00:40:34.769Z,11.70
2019-05-22T00:43:13.546Z,11.70
2019-05-22T00:45:37.109Z,11.70
2019-05-22T00:48:07.690Z,11.80
2019-05-22T00:50:46.942Z,11.70
2019-05-22T00:53:33.642Z,11.70
2019-05-22T00:56:06.460Z,11.70
2019-05-22T00:58:38.699Z,11.80
2019-05-22T01:01:16.946Z,11.80
2019-05-22T01:03:48.521Z,11.80
2019-05-22T01:06:20.545Z,11.70
2019-05-22T01:08:52.544Z,11.70
2019-05-22T01:11:24.482Z,11.70
2019-05-22T01:13:54.717Z,11.70
2019-05-22T01:16:24.940Z,11.70
2019-05-22T01:18:54.555Z,11.70
2019-05-22T01:21:26.663Z,11.70
2019-05-22T01:23:59.825Z,11.70
2019-05-22T01:26:29.493Z,11.70
2019-05-22T01:29:01.123Z,11.80
2019-05-22T01:31:42.292Z,11.80
2019-05-22T01:34:13.319Z,11.70
2019-05-22T01:36:45.436Z,11.70
2019-05-22T01:39:36.438Z,11.70
2019-05-22T01:42:08.233Z,11.70
2019-05-22T01:44:37.958Z,11.70
2019-05-22T01:47:13.230Z,11.70
2019-05-22T01:49:49.603Z,11.70
2019-05-22T01:52:20.261Z,11.70
2019-05-22T01:54:49.996Z,11.60
2019-05-22T01:57:19.685Z,11.60
2019-05-22T01:59:49.715Z,11.60
2019-05-22T02:02:21.660Z,11.60
2019-05-22T02:04:51.277Z,11.50
2019-05-22T02:07:21.634Z,11.60
2019-05-22T02:09:52.089Z,11.60
2019-05-22T02:12:31.175Z,11.60
2019-05-22T02:15:01.382Z,11.60
2019-05-22T02:17:35.333Z,11.60
2019-05-22T02:20:08.055Z,11.70
2019-05-22T02:22:40.133Z,11.60
2019-05-22T02:25:11.379Z,11.60
2019-05-22T02:27:41.469Z,11.60
2019-05-22T02:30:11.051Z,11.60
2019-05-22T02:32:40.908Z,11.60
2019-05-22T02:35:11.004Z,11.70
2019-05-22T02:37:41.868Z,11.70
2019-05-22T02:40:19.528Z,11.70
2019-05-22T02:42:50.753Z,11.70
2019-05-22T02:45:21.333Z,11.70
2019-05-22T02:47:50.949Z,11.70
2019-05-22T02:50:20.224Z,11.80
2019-05-22T02:52:50.240Z,11.80
2019-05-22T02:55:19.777Z,11.80
2019-05-22T02:57:49.014Z,11.80
2019-05-22T03:00:19.791Z,11.80
2019-05-22T03:02:52.039Z,11.80
2019-05-22T03:05:22.709Z,11.80
2019-05-22T03:07:52.862Z,11.80
2019-05-22T03:10:25.218Z,11.80
2019-05-22T03:12:55.153Z,11.80
2019-05-22T03:15:25.836Z,11.80
2019-05-22T03:18:01.608Z,11.80
2019-05-22T03:20:33.159Z,11.80
2019-05-22T03:23:37.128Z,11.90
2019-05-22T03:26:11.107Z,11.90
2019-05-22T03:28:41.743Z,11.90
2019-05-22T03:31:12.221Z,11.80
2019-05-22T03:33:42.352Z,11.80
2019-05-22T03:36:17.883Z,11.80
2019-05-22T03:38:48.571Z,11.80
2019-05-22T03:41:18.112Z,11.90
2019-05-22T03:43:48.347Z,11.80
2019-05-22T03:46:25.420Z,11.80
2019-05-22T03:48:54.734Z,11.80
2019-05-22T03:51:24.183Z,11.90
2019-05-22T03:53:54.110Z,11.80
2019-05-22T03:56:24.076Z,11.80
2019-05-22T03:58:53.367Z,11.90
2019-05-22T04:01:23.225Z,11.90
2019-05-22T04:03:53.103Z,11.90
2019-05-22T04:06:23.940Z,11.80
2019-05-22T04:08:54.370Z,11.90
2019-05-22T04:11:27.691Z,11.80
2019-05-22T04:13:58.218Z,11.80
2019-05-22T04:16:28.563Z,11.90
2019-05-22T04:18:58.388Z,11.90
2019-05-22T04:21:27.788Z,11.90
2019-05-22T04:23:57.252Z,11.90
2019-05-22T04:26:26.575Z,11.90
2019-05-22T04:28:56.950Z,11.90
2019-05-22T04:31:53.060Z,11.80
2019-05-22T04:34:22.493Z,11.90
2019-05-22T04:36:53.553Z,11.80
2019-05-22T04:39:25.743Z,11.70
2019-05-22T04:42:07.732Z,11.70
2019-05-22T04:44:39.995Z,11.70
2019-05-22T04:47:09.599Z,11.60
2019-05-22T04:49:39.208Z,11.60
2019-05-22T04:52:10.969Z,11.70
2019-05-22T04:54:40.195Z,11.60
2019-05-22T04:57:09.799Z,11.60
2019-05-22T04:59:40.103Z,11.60
2019-05-22T05:02:09.902Z,11.60
2019-05-22T05:04:39.890Z,11.70
2019-05-22T05:07:09.273Z,11.70
2019-05-22T05:09:38.826Z,11.80
2019-05-22T05:12:10.090Z,11.90
2019-05-22T05:14:39.567Z,11.80
2019-05-22T05:17:09.389Z,11.80
2019-05-22T05:19:39.383Z,11.90
2019-05-22T05:22:08.927Z,11.90
2019-05-22T05:24:38.244Z,11.80
2019-05-22T05:27:08.259Z,11.90
2019-05-22T05:29:37.492Z,11.90
2019-05-22T05:32:08.242Z,11.90
2019-05-22T05:34:46.070Z,11.90
2019-05-22T05:37:17.046Z,11.80
2019-05-22T05:40:28.929Z,11.80
2019-05-22T05:42:58.524Z,11.90
2019-05-22T05:45:29.166Z,11.90
2019-05-22T05:47:59.252Z,11.90
2019-05-22T05:50:38.997Z,11.90
2019-05-22T05:53:01.775Z,11.90
2019-05-22T05:58:26.558Z,11.90
2019-05-22T06:01:01.552Z,11.80
2019-05-22T06:03:33.769Z,11.70
2019-05-22T06:06:47.487Z,11.70
2019-05-22T06:09:19.913Z,11.80
2019-05-22T06:11:55.896Z,11.70
2019-05-22T06:14:27.447Z,11.70
2019-05-22T06:17:54.670Z,11.70
2019-05-22T06:20:26.351Z,11.70
2019-05-22T06:23:50.036Z,11.80
2019-05-22T06:26:39.176Z,11.80
2019-05-22T06:29:09.642Z,11.90
2019-05-22T06:31:51.109Z,11.90
2019-05-22T06:34:21.382Z,11.80
2019-05-22T06:36:51.188Z,11.80
2019-05-22T06:39:22.017Z,11.80
2019-05-22T06:41:52.143Z,11.80
2019-05-22T06:44:44.790Z,11.70
2019-05-22T06:47:25.450Z,11.70
2019-05-22T06:49:57.170Z,11.70
2019-05-22T06:52:27.377Z,11.70
2019-05-22T06:54:57.796Z,11.80
2019-05-22T06:57:36.032Z,11.80
2019-05-22T07:00:14.857Z,11.80
2019-05-22T07:02:44.544Z,11.70
2019-05-22T07:05:17.262Z,11.70
2019-05-22T07:07:47.099Z,11.70
2019-05-22T07:10:16.873Z,11.80
2019-05-22T07:12:50.281Z,11.80
2019-05-22T07:15:52.223Z,11.90
2019-05-22T07:18:24.027Z,11.90
2019-05-22T07:20:56.719Z,12.00
2019-05-22T07:23:31.817Z,11.90
2019-05-22T07:26:02.218Z,11.90
2019-05-22T07:28:33.349Z,11.90
2019-05-22T07:31:04.410Z,11.90
2019-05-22T07:33:34.108Z,11.80
2019-05-22T07:36:16.197Z,11.90
2019-05-22T07:38:35.748Z,12.00
2019-05-22T07:41:07.756Z,12.00
2019-05-22T07:43:41.184Z,12.00
2019-05-22T07:46:09.213Z,12.10
2019-05-22T07:48:39.505Z,12.10
2019-05-22T07:51:10.188Z,12.20
2019-05-22T07:53:40.893Z,12.20
2019-05-22T07:56:12.691Z,12.30
2019-05-22T07:58:45.486Z,12.30
2019-05-22T08:01:17.422Z,12.30
2019-05-22T08:03:48.739Z,12.40
2019-05-22T08:06:20.008Z,12.40
2019-05-22T08:08:50.364Z,12.50
2019-05-22T08:11:21.243Z,12.40
2019-05-22T08:13:52.111Z,12.40
2019-05-22T08:16:22.005Z,12.40
2019-05-22T08:18:52.005Z,12.50
2019-05-22T08:21:23.613Z,12.60
2019-05-22T08:23:55.950Z,12.60
2019-05-22T08:26:27.115Z,12.60
2019-05-22T08:28:57.017Z,12.60
2019-05-22T08:31:29.329Z,12.50
2019-05-22T08:33:59.631Z,12.40
2019-05-22T08:36:30.381Z,12.40
2019-05-22T08:39:04.580Z,12.40
2019-05-22T08:41:39.193Z,12.50
2019-05-22T08:44:16.917Z,12.40
2019-05-22T08:46:42.111Z,12.30
2019-05-22T08:49:12.242Z,12.30
2019-05-22T08:51:42.394Z,12.20
2019-05-22T08:54:13.102Z,12.30
2019-05-22T08:56:46.934Z,12.30
2019-05-22T08:59:19.888Z,12.30
2019-05-22T09:01:49.145Z,12.30
2019-05-22T09:04:18.880Z,12.40
2019-05-22T09:06:48.879Z,12.40
2019-05-22T09:09:19.499Z,12.50
2019-05-22T09:11:49.217Z,12.40
2019-05-22T09:14:18.983Z,12.40
2019-05-22T09:16:48.653Z,12.40
2019-05-22T09:19:18.422Z,12.40
2019-05-22T09:21:48.187Z,12.50
2019-05-22T09:24:19.785Z,12.50
2019-05-22T09:26:49.503Z,12.70
2019-05-22T09:29:19.454Z,12.60
2019-05-22T09:31:49.376Z,12.60
2019-05-22T09:34:19.366Z,12.50
2019-05-22T09:36:49.214Z,12.50
2019-05-22T09:39:18.917Z,12.50
2019-05-22T09:41:48.561Z,12.60
2019-05-22T09:44:18.541Z,12.70
2019-05-22T09:46:48.327Z,12.80
2019-05-22T09:49:18.072Z,13.00
2019-05-22T09:51:47.664Z,13.00
2019-05-22T09:54:18.011Z,13.10
2019-05-22T09:56:47.746Z,13.20
2019-05-22T09:59:17.629Z,13.30
2019-05-22T10:01:47.554Z,13.30
2019-05-22T10:04:17.390Z,13.20
2019-05-22T10:06:47.835Z,13.20
2019-05-22T10:09:17.696Z,13.30
2019-05-22T10:11:47.870Z,13.30
2019-05-22T10:14:18.761Z,13.30
2019-05-22T10:16:48.888Z,13.30
2019-05-22T10:19:18.782Z,13.40
2019-05-22T10:21:49.593Z,13.60
2019-05-22T10:24:21.382Z,13.70
2019-05-22T10:26:50.947Z,13.70
2019-05-22T10:29:20.757Z,13.80
2019-05-22T10:31:50.447Z,14.00
2019-05-22T10:34:20.097Z,13.90
2019-05-22T10:36:49.765Z,13.80
2019-05-22T10:39:19.742Z,13.80
2019-05-22T10:41:49.466Z,14.00
2019-05-22T10:44:21.903Z,14.30
2019-05-22T10:46:51.704Z,14.40
2019-05-22T10:49:21.351Z,14.40
2019-05-22T10:51:51.765Z,14.30
2019-05-22T10:54:21.432Z,14.00
2019-05-22T10:56:51.028Z,13.90
2019-05-22T10:59:20.659Z,14.10
2019-05-22T11:01:50.327Z,14.10
2019-05-22T11:04:20.804Z,14.00
2019-05-22T11:06:50.583Z,13.80
2019-05-22T11:09:20.364Z,13.80
2019-05-22T11:11:50.147Z,13.90
2019-05-22T11:14:20.092Z,14.00
2019-05-22T11:16:50.007Z,14.00
2019-05-22T11:19:19.703Z,14.00
2019-05-22T11:21:49.341Z,14.10
2019-05-22T11:24:19.293Z,14.10
2019-05-22T11:26:49.266Z,14.10
2019-05-22T11:29:19.061Z,14.20
2019-05-22T11:31:48.843Z,14.40
2019-05-22T11:34:18.583Z,14.40
2019-05-22T11:36:48.418Z,14.30
2019-05-22T11:39:36.339Z,14.40
2019-05-22T11:41:52.310Z,14.50
2019-05-22T11:44:21.974Z,14.70
2019-05-22T11:46:51.953Z,14.90
2019-05-22T11:49:21.645Z,14.80
2019-05-22T11:51:51.310Z,14.70
2019-05-22T11:54:21.062Z,14.70
2019-05-22T11:56:50.710Z,14.70
2019-05-22T11:59:21.347Z,14.60
2019-05-22T12:01:51.437Z,14.60
2019-05-22T12:04:21.182Z,14.70
2019-05-22T12:07:18.153Z,14.90
2019-05-22T12:09:50.869Z,15.10
2019-05-22T12:12:21.055Z,15.20
2019-05-22T12:14:51.023Z,15.30
2019-05-22T12:17:36.701Z,15.30
2019-05-22T12:19:53.170Z,15.30
2019-05-22T12:22:23.317Z,15.10
2019-05-22T12:24:53.040Z,15.10
2019-05-22T12:27:22.846Z,15.10
2019-05-22T12:30:00.029Z,15.10
2019-05-22T12:32:32.202Z,15.20
2019-05-22T12:35:06.580Z,15.30
2019-05-22T12:37:36.793Z,15.30
2019-05-22T12:40:07.780Z,15.10
2019-05-22T12:42:38.990Z,15.00
2019-05-22T12:45:09.252Z,14.90
2019-05-22T12:47:43.141Z,14.80
2019-05-22T12:50:15.462Z,14.90
2019-05-22T12:52:48.183Z,15.10
2019-05-22T12:55:18.485Z,15.20
2019-05-22T12:57:49.580Z,15.30
2019-05-22T13:00:23.397Z,15.20
2019-05-22T13:02:55.103Z,15.30
2019-05-22T13:05:25.018Z,15.60
2019-05-22T13:07:56.469Z,15.70
2019-05-22T13:10:27.815Z,15.90
2019-05-22T13:12:57.887Z,15.80
2019-05-22T13:15:29.289Z,15.60
2019-05-22T13:17:59.447Z,15.50
2019-05-22T13:20:43.592Z,15.60
2019-05-22T13:23:11.826Z,15.80
2019-05-22T13:25:43.378Z,15.90
2019-05-22T13:28:17.877Z,15.70
2019-05-22T13:30:52.101Z,15.90
2019-05-22T13:33:24.747Z,16.10
2019-05-22T13:36:00.897Z,16.20
2019-05-22T13:38:30.559Z,16.40
2019-05-22T13:41:00.230Z,16.30
2019-05-22T13:43:29.915Z,16.30
2019-05-22T13:45:59.592Z,16.40
2019-05-22T13:48:29.616Z,16.50
2019-05-22T13:51:00.910Z,16.70
2019-05-22T13:53:30.823Z,17.00
2019-05-22T13:56:01.285Z,17.00
2019-05-22T13:58:31.347Z,17.10
2019-05-22T14:01:01.156Z,17.10
2019-05-22T14:03:31.080Z,16.80
2019-05-22T14:06:01.696Z,16.70
2019-05-22T14:08:31.748Z,16.60
2019-05-22T14:11:01.738Z,16.60
2019-05-22T14:13:31.997Z,16.40
2019-05-22T14:16:01.574Z,16.70
2019-05-22T14:18:31.372Z,16.80
2019-05-22T14:21:01.227Z,17.00
2019-05-22T14:23:30.779Z,17.20
2019-05-22T14:26:00.723Z,17.30
2019-05-22T14:28:30.364Z,17.10
2019-05-22T14:31:00.370Z,17.00
2019-05-22T14:33:30.876Z,16.90
2019-05-22T14:36:01.098Z,17.10
2019-05-22T14:38:30.716Z,17.30
2019-05-22T14:41:01.060Z,17.30
2019-05-22T14:43:31.575Z,17.50
2019-05-22T14:46:03.389Z,17.50
2019-05-22T14:48:33.121Z,17.50
2019-05-22T14:51:02.788Z,17.50
2019-05-22T14:53:33.596Z,17.50
2019-05-22T14:56:05.563Z,17.50
2019-05-22T14:58:35.311Z,17.50
2019-05-22T15:01:07.018Z,17.40
2019-05-22T15:03:36.791Z,17.30
2019-05-22T15:06:06.820Z,17.20
2019-05-22T15:08:36.488Z,17.30
2019-05-22T15:11:06.146Z,17.30
2019-05-22T15:13:36.056Z,17.30
2019-05-22T15:16:05.777Z,17.30
2019-05-22T15:18:36.591Z,17.40
2019-05-22T15:21:08.432Z,17.40
2019-05-22T15:23:38.462Z,17.20
2019-05-22T15:26:08.596Z,16.90
2019-05-22T15:28:38.320Z,16.80
2019-05-22T15:31:08.751Z,16.90
2019-05-22T15:33:42.200Z,16.80
2019-05-22T15:36:13.699Z,16.80
2019-05-22T15:38:44.395Z,16.70
2019-05-22T15:41:15.589Z,16.70
2019-05-22T15:43:52.125Z,16.70
2019-05-22T15:46:19.162Z,16.70
2019-05-22T15:48:50.891Z,16.80
2019-05-22T15:51:26.382Z,16.80
2019-05-22T15:54:03.765Z,16.80
2019-05-22T15:56:36.421Z,16.90
2019-05-22T15:59:09.145Z,17.00
2019-05-22T16:01:39.760Z,16.80
2019-05-22T16:04:12.734Z,16.60
2019-05-22T16:06:44.544Z,16.50
2019-05-22T16:09:17.482Z,16.60
2019-05-22T16:11:51.520Z,16.80
2019-05-22T16:14:29.614Z,16.90
2019-05-22T16:17:03.529Z,17.00
2019-05-22T16:19:40.217Z,17.00
2019-05-22T16:22:12.708Z,17.00
2019-05-22T16:24:43.371Z,17.00
2019-05-22T16:27:15.078Z,17.00
2019-05-22T16:29:46.205Z,17.10
2019-05-22T16:32:17.878Z,17.30
2019-05-22T16:34:48.230Z,17.40
2019-05-22T16:37:18.821Z,17.60
2019-05-22T16:39:50.475Z,17.70
2019-05-22T16:42:21.771Z,17.70
2019-05-22T16:44:51.819Z,17.90
2019-05-22T16:47:24.410Z,18.00
2019-05-22T16:49:57.176Z,18.20
2019-05-22T16:52:28.386Z,18.40
2019-05-22T16:54:59.861Z,18.30
2019-05-22T16:57:31.513Z,18.10
2019-05-22T17:00:02.962Z,17.80
2019-05-22T17:02:43.107Z,17.60
2019-05-22T17:05:23.008Z,17.40
2019-05-22T17:07:57.614Z,17.30
2019-05-22T17:10:28.511Z,17.20
2019-05-22T17:13:00.318Z,17.30
2019-05-22T17:15:30.775Z,17.30
2019-05-22T17:18:01.043Z,17.40
2019-05-22T17:20:32.425Z,17.40
2019-05-22T17:23:02.273Z,17.40
2019-05-22T17:25:31.938Z,17.30
2019-05-22T17:28:02.577Z,17.00
2019-05-22T17:30:32.379Z,16.80
2019-05-22T17:33:02.126Z,16.60
2019-05-22T17:35:32.939Z,16.60
2019-05-22T17:38:03.592Z,16.60
2019-05-22T17:40:33.552Z,16.60
2019-05-22T17:43:07.610Z,16.60
2019-05-22T17:45:39.247Z,16.70
2019-05-22T17:48:09.497Z,16.70
2019-05-22T17:50:39.420Z,16.70
2019-05-22T17:53:09.542Z,16.60
2019-05-22T17:55:39.632Z,16.60
2019-05-22T17:58:10.029Z,16.50
2019-05-22T18:00:42.764Z,16.60
2019-05-22T18:03:16.977Z,16.60
2019-05-22T18:05:50.934Z,16.60
2019-05-22T18:08:23.628Z,16.40
2019-05-22T18:10:58.909Z,16.30
2019-05-22T18:13:31.463Z,16.30
2019-05-22T18:16:04.418Z,16.30
2019-05-22T18:18:36.008Z,16.30
2019-05-22T18:21:15.355Z,16.20
2019-05-22T18:23:47.331Z,16.20
2019-05-22T18:26:18.099Z,16.20
2019-05-22T18:28:48.974Z,16.10
2019-05-22T18:31:19.297Z,16.20
2019-05-22T18:33:49.056Z,16.30
2019-05-22T18:36:18.814Z,16.20
2019-05-22T18:38:48.668Z,16.30
2019-05-22T18:41:19.834Z,16.20
2019-05-22T18:43:49.910Z,16.10
2019-05-22T18:46:19.699Z,16.20
2019-05-22T18:48:51.231Z,16.20
2019-05-22T18:51:21.123Z,16.10
2019-05-22T18:53:58.605Z,16.00
2019-05-22T18:56:28.632Z,15.80
2019-05-22T18:58:58.364Z,15.80
2019-05-22T19:01:28.483Z,15.70
2019-05-22T19:03:58.321Z,15.60
2019-05-22T19:06:30.684Z,15.50
2019-05-22T19:08:59.979Z,15.40
2019-05-22T19:11:31.304Z,15.40
2019-05-22T19:14:01.243Z,15.30
2019-05-22T19:16:35.822Z,15.30
2019-05-22T19:19:09.087Z,15.20
2019-05-22T19:21:38.904Z,15.20
2019-05-22T19:24:12.280Z,15.10
2019-05-22T19:26:42.279Z,15.00
2019-05-22T19:29:12.097Z,14.90
2019-05-22T19:31:42.080Z,14.90
2019-05-22T19:34:12.263Z,14.80
2019-05-22T19:36:42.747Z,14.70
2019-05-22T19:39:12.882Z,14.70
2019-05-22T19:41:43.248Z,14.60
2019-05-22T19:44:13.215Z,14.60
2019-05-22T19:46:43.047Z,14.50
2019-05-22T19:49:13.129Z,14.50
2019-05-22T19:51:54.151Z,14.50
2019-05-22T19:54:23.733Z,14.40
2019-05-22T19:56:53.046Z,14.40
2019-05-22T19:59:22.865Z,14.40
2019-05-22T20:01:52.523Z,14.40
2019-05-22T20:04:21.955Z,14.40
2019-05-22T20:06:51.201Z,14.40
2019-05-22T20:09:21.266Z,14.30
2019-05-22T20:11:50.868Z,14.20
2019-05-22T20:14:20.326Z,14.20
2019-05-22T20:16:49.593Z,14.20
2019-05-22T20:19:19.452Z,14.10
2019-05-22T20:21:49.450Z,14.00
2019-05-22T20:24:18.741Z,14.00
2019-05-22T20:26:47.994Z,13.90
2019-05-22T20:29:17.664Z,13.70
2019-05-22T20:31:46.949Z,13.50
2019-05-22T20:34:16.391Z,13.40
2019-05-22T20:36:46.374Z,13.30
2019-05-22T20:39:16.370Z,13.30
2019-05-22T20:41:46.230Z,13.10
2019-05-22T20:44:16.491Z,13.00
2019-05-22T20:46:48.704Z,13.10
2019-05-22T20:49:17.996Z,13.10
2019-05-22T20:51:47.958Z,13.20
2019-05-22T20:54:18.579Z,13.30
2019-05-22T20:56:50.284Z,13.10
2019-05-22T20:59:21.238Z,13.10
2019-05-22T21:01:51.409Z,13.10
2019-05-22T21:04:22.516Z,13.00
2019-05-22T21:07:00.492Z,12.90
2019-05-22T21:09:31.600Z,12.80
2019-05-22T21:12:01.339Z,12.70
2019-05-22T21:14:31.075Z,12.60
2019-05-22T21:17:02.620Z,12.50
2019-05-22T21:19:32.878Z,12.50
2019-05-22T21:22:02.363Z,12.40
2019-05-22T21:24:31.740Z,12.30
2019-05-22T21:27:01.006Z,12.20
2019-05-22T21:29:31.011Z,12.10
2019-05-22T21:32:01.142Z,12.10
2019-05-22T21:34:31.135Z,12.10
2019-05-22T21:37:00.779Z,12.00
2019-05-22T21:39:30.250Z,12.00
2019-05-22T21:41:59.545Z,11.90
2019-05-22T21:44:28.945Z,12.00
2019-05-22T21:46:59.052Z,12.00
2019-05-22T21:49:29.987Z,12.00
2019-05-22T21:52:12.884Z,11.80
2019-05-22T21:54:42.439Z,11.80
2019-05-22T21:57:13.328Z,11.70
2019-05-22T21:59:43.422Z,11.80
2019-05-22T22:02:23.080Z,11.70
2019-05-22T22:04:53.342Z,11.70
2019-05-22T22:07:23.537Z,11.60
2019-05-22T22:09:53.539Z,11.40
2019-05-22T22:12:24.831Z,11.30
2019-05-22T22:14:54.237Z,11.20
2019-05-22T22:17:25.099Z,11.10
2019-05-22T22:19:55.522Z,11.00
2019-05-22T22:22:30.365Z,10.80
2019-05-22T22:24:59.725Z,10.60
2019-05-22T22:27:29.458Z,10.40
2019-05-22T22:29:58.950Z,10.30
2019-05-22T22:32:29.959Z,10.20
2019-05-22T22:34:59.316Z,10.20
2019-05-22T22:37:28.986Z,10.10
2019-05-22T22:39:59.875Z,10.10
2019-05-22T22:42:36.772Z,10.00
2019-05-22T22:45:07.961Z,10.00
2019-05-22T22:47:44.253Z,10.00
2019-05-22T22:50:15.876Z,10.00
2019-05-22T22:53:24.015Z,9.90
2019-05-22T22:55:59.006Z,9.90
2019-05-22T22:59:01.319Z,9.90
2019-05-22T23:01:58.126Z,9.90
2019-05-22T23:07:45.101Z,9.80
2019-05-22T23:10:25.237Z,9.80
2019-05-22T23:13:13.569Z,9.90
2019-05-22T23:15:59.608Z,9.90
2019-05-22T23:19:15.808Z,9.90
2019-05-22T23:21:45.421Z,9.90
2019-05-22T23:24:16.099Z,10.00
2019-05-22T23:26:45.766Z,10.00
2019-05-22T23:29:15.630Z,10.10
2019-05-22T23:31:46.673Z,10.20
2019-05-22T23:34:16.898Z,10.30
2019-05-22T23:36:47.065Z,10.30
2019-05-22T23:39:18.690Z,10.30
2019-05-22T23:41:48.941Z,10.50
2019-05-22T23:44:23.329Z,10.60
2019-05-22T23:46:53.564Z,10.70
2019-05-22T23:49:24.842Z,10.70
2019-05-22T23:51:55.299Z,10.70
2019-05-22T23:54:25.897Z,10.80
2019-05-22T23:56:57.072Z,10.90
2019-05-22T23:59:27.829Z,10.90
